Time;durP1;ratioP1;P1;durP2;ratioP2;P2;SDS_P1;SDS_P2;PMS_P1;PMS_P2;Temp;Humidity;BMP_temperature;BMP_pressure;BME280_temperature;BME280_humidity;BME280_pressure;Samples;Min_cycle;Max_cycle;Signal;HPM_P1;HPM_P2
2022/04/13 00:02:27;;;;;;;5.40;2.20;;;;;;;;;;5125375;28;20140;-70
2022/04/13 00:04:55;;;;;;;8.55;2.15;;;;;;;;;;5124678;28;20043;-69
2022/04/13 00:07:24;;;;;;;5.00;2.10;;;;;;;;;;5127973;28;20043;-69
2022/04/13 00:09:53;;;;;;;4.32;1.63;;;;;;;;;;5126612;28;20104;-69
2022/04/13 00:12:22;;;;;;;4.80;2.00;;;;;;;;;;5121656;28;20134;-69
2022/04/13 00:14:52;;;;;;;6.38;1.60;;;;;;;;;;5127331;28;20035;-70
2022/04/13 00:17:22;;;;;;;4.22;1.88;;;;;;;;;;5128016;28;20129;-69
2022/04/13 00:19:50;;;;;;;8.32;2.10;;;;;;;;;;5126458;28;20512;-69
2022/04/13 00:22:18;;;;;;;4.15;2.00;;;;;;;;;;5121252;28;20347;-70
2022/04/13 00:24:47;;;;;;;4.20;2.05;;;;;;;;;;5127813;28;20129;-70
2022/04/13 00:27:15;;;;;;;4.95;2.00;;;;;;;;;;5118050;28;20097;-70
2022/04/13 00:29:43;;;;;;;5.82;1.80;;;;;;;;;;5128312;28;20138;-70
2022/04/13 00:32:13;;;;;;;3.08;1.70;;;;;;;;;;5120602;28;20096;-69
2022/04/13 00:34:41;;;;;;;7.90;2.65;;;;;;;;;;5117963;28;20051;-69
2022/04/13 00:37:10;;;;;;;3.15;1.73;;;;;;;;;;5109986;28;20035;-69
2022/04/13 00:39:38;;;;;;;5.68;1.88;;;;;;;;;;5112200;28;20090;-70
2022/04/13 00:42:07;;;;;;;4.47;2.05;;;;;;;;;;5129827;27;20099;-69
2022/04/13 00:44:36;;;;;;;7.70;2.30;;;;;;;;;;5131924;27;20138;-69
2022/04/13 00:47:07;;;;;;;5.60;2.15;;;;;;;;;;5114623;27;20096;-69
2022/04/13 00:49:37;;;;;;;5.63;1.95;;;;;;;;;;5124692;27;20420;-69
2022/04/13 00:52:06;;;;;;;3.53;1.80;;;;;;;;;;5111879;27;20043;-70
2022/04/13 00:54:35;;;;;;;4.65;2.15;;;;;;;;;;5112488;27;20051;-69
2022/04/13 00:57:08;;;;;;;8.88;2.50;;;;;;;;;;5117752;27;20164;-69
2022/04/13 00:59:37;;;;;;;14.15;2.30;;;;;;;;;;5125553;27;20082;-70
2022/04/13 01:02:07;;;;;;;6.47;2.20;;;;;;;;;;5122285;27;20553;-69
2022/04/13 01:04:37;;;;;;;6.15;2.42;;;;;;;;;;5116859;27;20142;-70
2022/04/13 01:07:08;;;;;;;6.80;2.47;;;;;;;;;;5125926;27;20082;-70
2022/04/13 01:09:36;;;;;;;5.18;2.40;;;;;;;;;;5129679;27;20122;-70
2022/04/13 01:12:06;;;;;;;5.40;2.10;;;;;;;;;;5129638;27;20394;-69
2022/04/13 01:14:34;;;;;;;4.88;2.28;;;;;;;;;;5122205;27;20104;-70
2022/04/13 01:17:02;;;;;;;5.70;1.92;;;;;;;;;;5112243;28;20047;-69
2022/04/13 01:19:32;;;;;;;4.97;2.35;;;;;;;;;;5122429;27;20047;-69
2022/04/13 01:22:08;;;;;;;6.32;2.35;;;;;;;;;;5113090;27;20056;-69
2022/04/13 01:24:38;;;;;;;8.52;2.63;;;;;;;;;;5121095;27;20486;-70
2022/04/13 01:27:07;;;;;;;3.45;2.00;;;;;;;;;;5113573;27;20447;-69
2022/04/13 01:29:35;;;;;;;4.18;2.15;;;;;;;;;;5113743;27;20086;-69
2022/04/13 01:32:03;;;;;;;4.55;2.33;;;;;;;;;;5131488;27;20047;-69
2022/04/13 01:34:32;;;;;;;7.72;2.20;;;;;;;;;;5129552;27;20057;-70
2022/04/13 01:37:00;;;;;;;9.38;2.92;;;;;;;;;;5116344;27;20063;-69
2022/04/13 01:39:29;;;;;;;6.63;3.53;;;;;;;;;;5112209;27;20189;-70
2022/04/13 01:41:58;;;;;;;12.45;3.00;;;;;;;;;;5130827;27;20079;-70
2022/04/13 01:44:26;;;;;;;8.98;2.55;;;;;;;;;;5128305;27;20074;-70
2022/04/13 01:46:55;;;;;;;8.52;3.20;;;;;;;;;;5130198;27;20482;-69
2022/04/13 01:49:23;;;;;;;7.43;2.88;;;;;;;;;;5112629;27;20518;-69
2022/04/13 01:51:51;;;;;;;4.95;2.55;;;;;;;;;;5115378;27;20127;-69
2022/04/13 01:54:19;;;;;;;7.85;2.90;;;;;;;;;;5126615;27;20478;-70
2022/04/13 01:56:48;;;;;;;5.72;2.65;;;;;;;;;;5112918;27;20053;-70
2022/04/13 01:59:17;;;;;;;5.72;2.58;;;;;;;;;;5112526;27;20054;-69
2022/04/13 02:01:46;;;;;;;6.22;2.53;;;;;;;;;;5123980;27;20134;-70
2022/04/13 02:04:18;;;;;;;8.70;2.95;;;;;;;;;;5121428;27;20051;-70
2022/04/13 02:06:47;;;;;;;7.88;2.60;;;;;;;;;;5121580;27;20401;-69
2022/04/13 02:09:15;;;;;;;3.75;2.13;;;;;;;;;;5120242;27;20126;-70
2022/04/13 02:11:43;;;;;;;5.90;2.45;;;;;;;;;;5121190;27;20566;-69
2022/04/13 02:14:12;;;;;;;3.97;2.13;;;;;;;;;;5122383;27;20051;-69
2022/04/13 02:16:42;;;;;;;6.57;2.30;;;;;;;;;;5120604;27;20086;-70
2022/04/13 02:19:11;;;;;;;7.97;2.63;;;;;;;;;;5115157;27;20398;-69
2022/04/13 02:21:40;;;;;;;3.88;2.20;;;;;;;;;;5114406;27;20048;-70
2022/04/13 02:24:08;;;;;;;6.40;2.55;;;;;;;;;;5117551;27;20166;-70
2022/04/13 02:26:37;;;;;;;5.97;2.50;;;;;;;;;;5114150;27;20508;-70
2022/04/13 02:29:05;;;;;;;6.22;2.50;;;;;;;;;;5122296;27;20126;-69
2022/04/13 02:31:34;;;;;;;5.95;2.75;;;;;;;;;;5123213;27;20043;-70
2022/04/13 02:34:04;;;;;;;6.93;2.97;;;;;;;;;;5124901;27;20046;-69
2022/04/13 02:36:33;;;;;;;6.55;2.45;;;;;;;;;;5119732;27;20131;-69
2022/04/13 02:39:01;;;;;;;6.60;2.58;;;;;;;;;;5121647;27;20142;-70
2022/04/13 02:41:30;;;;;;;7.03;2.72;;;;;;;;;;5119358;27;20154;-70
2022/04/13 02:43:58;;;;;;;4.70;2.58;;;;;;;;;;5127488;27;20047;-70
2022/04/13 02:46:26;;;;;;;7.07;2.50;;;;;;;;;;5119392;27;20482;-69
2022/04/13 02:48:54;;;;;;;6.90;2.63;;;;;;;;;;5125196;27;20142;-69
2022/04/13 02:51:24;;;;;;;5.82;2.50;;;;;;;;;;5128532;27;20142;-69
2022/04/13 02:53:52;;;;;;;6.55;2.65;;;;;;;;;;5124895;27;20476;-69
2022/04/13 02:56:21;;;;;;;5.57;2.47;;;;;;;;;;5124974;27;20130;-69
2022/04/13 02:58:49;;;;;;;4.68;2.42;;;;;;;;;;5123694;27;20074;-70
2022/04/13 03:01:17;;;;;;;10.05;2.97;;;;;;;;;;5120449;27;20542;-70
2022/04/13 03:03:45;;;;;;;5.38;2.50;;;;;;;;;;5116693;27;20047;-69
2022/04/13 03:06:14;;;;;;;4.18;2.28;;;;;;;;;;5127694;27;20130;-69
2022/04/13 03:08:45;;;;;;;7.72;2.20;;;;;;;;;;5117624;27;20042;-69
2022/04/13 03:11:13;;;;;;;4.55;2.50;;;;;;;;;;5115737;27;20521;-69
2022/04/13 03:13:41;;;;;;;6.70;2.47;;;;;;;;;;5122558;27;20495;-69
2022/04/13 03:16:10;;;;;;;3.88;2.25;;;;;;;;;;5126032;27;20058;-69
2022/04/13 03:18:38;;;;;;;6.05;2.53;;;;;;;;;;5115248;27;20055;-69
2022/04/13 03:21:06;;;;;;;4.85;2.70;;;;;;;;;;5111193;27;20118;-69
2022/04/13 03:23:34;;;;;;;5.97;2.90;;;;;;;;;;5120090;27;20134;-69
2022/04/13 03:26:07;;;;;;;7.57;2.60;;;;;;;;;;5127963;27;20164;-69
2022/04/13 03:28:35;;;;;;;9.63;2.63;;;;;;;;;;5114204;27;20050;-70
2022/04/13 03:31:06;;;;;;;7.80;2.67;;;;;;;;;;5115609;27;20417;-70
2022/04/13 03:33:35;;;;;;;5.90;2.63;;;;;;;;;;5120842;27;20159;-70
2022/04/13 03:36:06;;;;;;;8.65;2.70;;;;;;;;;;5114393;27;20387;-69
2022/04/13 03:38:34;;;;;;;12.73;3.03;;;;;;;;;;5129094;27;20047;-70
2022/04/13 03:41:07;;;;;;;7.22;3.00;;;;;;;;;;5121668;27;20145;-69
2022/04/13 03:43:35;;;;;;;6.93;2.50;;;;;;;;;;5111017;28;20143;-69
2022/04/13 03:46:06;;;;;;;5.38;2.90;;;;;;;;;;5114219;28;20051;-69
2022/04/13 03:48:35;;;;;;;3.90;2.40;;;;;;;;;;5117684;27;20541;-70
2022/04/13 03:51:07;;;;;;;4.75;2.80;;;;;;;;;;5122024;27;20477;-70
2022/04/13 03:53:35;;;;;;;4.10;2.17;;;;;;;;;;5127890;27;20058;-69
2022/04/13 03:56:07;;;;;;;4.90;2.65;;;;;;;;;;5127266;27;20040;-69
2022/04/13 03:58:35;;;;;;;8.68;2.65;;;;;;;;;;5112138;28;20047;-70
2022/04/13 04:01:06;;;;;;;5.30;2.67;;;;;;;;;;5127816;28;20154;-70
2022/04/13 04:03:35;;;;;;;7.72;2.97;;;;;;;;;;5129591;28;20124;-70
2022/04/13 04:06:07;;;;;;;6.00;2.97;;;;;;;;;;5130598;27;20047;-70
2022/04/13 04:08:35;;;;;;;3.38;2.25;;;;;;;;;;5116785;28;20043;-70
2022/04/13 04:11:07;;;;;;;7.78;3.03;;;;;;;;;;5129055;27;20545;-70
2022/04/13 04:13:35;;;;;;;6.18;2.97;;;;;;;;;;5119538;27;20134;-70
2022/04/13 04:16:06;;;;;;;7.55;3.13;;;;;;;;;;5130437;27;20064;-70
2022/04/13 04:18:34;;;;;;;8.85;3.10;;;;;;;;;;5133719;27;20047;-69
2022/04/13 04:21:05;;;;;;;5.88;2.60;;;;;;;;;;5125045;27;20394;-69
2022/04/13 04:23:33;;;;;;;7.07;2.97;;;;;;;;;;5115954;27;20054;-69
2022/04/13 04:26:01;;;;;;;10.27;3.88;;;;;;;;;;5121322;27;20126;-70
2022/04/13 04:28:33;;;;;;;11.02;4.22;;;;;;;;;;5115649;27;20058;-70
2022/04/13 04:31:05;;;;;;;11.73;4.55;;;;;;;;;;5128369;27;20059;-69
2022/04/13 04:33:33;;;;;;;11.73;4.22;;;;;;;;;;5121660;27;20051;-70
2022/04/13 04:36:01;;;;;;;8.77;4.00;;;;;;;;;;5125235;27;20130;-69
2022/04/13 04:38:32;;;;;;;9.32;3.42;;;;;;;;;;5131189;27;20464;-69
2022/04/13 04:41:00;;;;;;;8.75;3.47;;;;;;;;;;5116248;27;20056;-69
2022/04/13 04:43:29;;;;;;;9.57;3.63;;;;;;;;;;5121550;27;20129;-69
2022/04/13 04:45:58;;;;;;;9.15;3.80;;;;;;;;;;5129422;27;20043;-70
2022/04/13 04:48:27;;;;;;;10.80;3.63;;;;;;;;;;5129959;27;20448;-70
2022/04/13 04:50:55;;;;;;;9.95;3.97;;;;;;;;;;5112634;28;20047;-69
2022/04/13 04:53:27;;;;;;;8.30;3.72;;;;;;;;;;5122599;27;20061;-69
2022/04/13 04:55:55;;;;;;;8.90;3.65;;;;;;;;;;5128403;27;20141;-71
2022/04/13 04:58:24;;;;;;;7.63;3.63;;;;;;;;;;5111806;28;20078;-69
2022/04/13 05:00:52;;;;;;;10.32;3.35;;;;;;;;;;5120333;27;20056;-69
2022/04/13 05:03:22;;;;;;;8.23;3.78;;;;;;;;;;5117678;27;20097;-69
2022/04/13 05:05:51;;;;;;;10.93;3.00;;;;;;;;;;5108623;28;20564;-69
2022/04/13 05:08:19;;;;;;;5.97;2.90;;;;;;;;;;5109643;28;20127;-70
2022/04/13 05:10:51;;;;;;;7.38;3.60;;;;;;;;;;5109476;27;20130;-70
2022/04/13 05:13:19;;;;;;;5.45;2.88;;;;;;;;;;5118059;27;20051;-69
2022/04/13 05:15:47;;;;;;;9.23;3.47;;;;;;;;;;5115303;27;20043;-69
2022/04/13 05:18:16;;;;;;;11.00;4.20;;;;;;;;;;5126497;27;20100;-70
2022/04/13 05:20:45;;;;;;;7.65;3.05;;;;;;;;;;5113162;27;20051;-70
2022/04/13 05:23:16;;;;;;;7.40;3.17;;;;;;;;;;5107434;28;20058;-69
2022/04/13 05:25:46;;;;;;;11.27;3.20;;;;;;;;;;5112179;27;20044;-69
2022/04/13 05:28:15;;;;;;;9.32;3.28;;;;;;;;;;5114760;27;20127;-69
2022/04/13 05:30:43;;;;;;;9.15;3.10;;;;;;;;;;5117606;27;20064;-69
2022/04/13 05:33:12;;;;;;;7.25;3.10;;;;;;;;;;5127400;27;20057;-70
2022/04/13 05:35:41;;;;;;;5.70;3.10;;;;;;;;;;5120257;27;20039;-70
2022/04/13 05:38:10;;;;;;;7.88;2.97;;;;;;;;;;5121218;27;20096;-69
2022/04/13 05:40:38;;;;;;;6.97;3.67;;;;;;;;;;5120503;27;20047;-69
2022/04/13 05:43:07;;;;;;;9.93;3.45;;;;;;;;;;5117415;27;20043;-69
2022/04/13 05:45:35;;;;;;;5.43;3.00;;;;;;;;;;5128072;27;20593;-69
2022/04/13 05:48:05;;;;;;;8.43;3.70;;;;;;;;;;5125280;27;20122;-69
2022/04/13 05:50:33;;;;;;;6.20;3.45;;;;;;;;;;5124664;27;20711;-70
2022/04/13 05:53:01;;;;;;;9.05;3.50;;;;;;;;;;5121723;27;20122;-70
2022/04/13 05:55:32;;;;;;;6.28;3.65;;;;;;;;;;5123226;27;20058;-70
2022/04/13 05:58:00;;;;;;;10.65;4.07;;;;;;;;;;5118193;27;20052;-70
2022/04/13 06:00:28;;;;;;;9.00;3.80;;;;;;;;;;5122520;27;20134;-69
2022/04/13 06:02:57;;;;;;;7.00;3.50;;;;;;;;;;5115185;27;20131;-70
2022/04/13 06:05:26;;;;;;;6.53;3.28;;;;;;;;;;5115932;27;20157;-70
2022/04/13 06:07:54;;;;;;;7.45;3.63;;;;;;;;;;5116139;27;20047;-69
2022/04/13 06:10:23;;;;;;;13.02;3.85;;;;;;;;;;5127740;27;20148;-69
2022/04/13 06:12:53;;;;;;;10.68;3.47;;;;;;;;;;5112575;27;20558;-70
2022/04/13 06:15:21;;;;;;;12.32;3.55;;;;;;;;;;5112125;27;20108;-70
2022/04/13 06:17:49;;;;;;;9.43;3.38;;;;;;;;;;5112192;27;20134;-70
2022/04/13 06:20:18;;;;;;;12.52;4.03;;;;;;;;;;5127079;27;20069;-69
2022/04/13 06:22:46;;;;;;;9.55;3.38;;;;;;;;;;5111346;27;20071;-70
2022/04/13 06:25:14;;;;;;;21.33;4.00;;;;;;;;;;5113628;27;20123;-69
2022/04/13 06:27:44;;;;;;;9.88;3.50;;;;;;;;;;5108600;27;20477;-70
2022/04/13 06:30:15;;;;;;;12.43;3.90;;;;;;;;;;5126164;27;20059;-69
2022/04/13 06:32:44;;;;;;;18.67;4.60;;;;;;;;;;5130358;27;20043;-70
2022/04/13 06:35:13;;;;;;;10.23;3.60;;;;;;;;;;5122023;27;20137;-70
2022/04/13 06:37:42;;;;;;;9.07;4.05;;;;;;;;;;5125781;27;20039;-70
2022/04/13 06:40:11;;;;;;;12.55;4.43;;;;;;;;;;5115579;27;20051;-70
2022/04/13 06:42:40;;;;;;;11.40;4.03;;;;;;;;;;5124223;27;20481;-69
2022/04/13 06:45:10;;;;;;;11.35;3.35;;;;;;;;;;5127174;27;20078;-70
2022/04/13 06:47:40;;;;;;;10.02;4.00;;;;;;;;;;5114060;27;20055;-69
2022/04/13 06:50:09;;;;;;;13.25;4.22;;;;;;;;;;5125905;27;20044;-69
2022/04/13 06:52:38;;;;;;;16.02;4.57;;;;;;;;;;5116001;27;20051;-69
2022/04/13 06:55:09;;;;;;;8.98;3.63;;;;;;;;;;5125734;27;20054;-70
2022/04/13 06:57:38;;;;;;;15.30;4.13;;;;;;;;;;5116221;27;20436;-69
2022/04/13 07:00:08;;;;;;;10.18;4.05;;;;;;;;;;5123194;27;20043;-70
2022/04/13 07:02:37;;;;;;;14.65;5.13;;;;;;;;;;5119338;27;20176;-70
2022/04/13 07:05:28;;;;;;;18.73;4.18;;;;;;;;;;5113609;27;20047;-70
2022/04/13 07:07:57;;;;;;;14.43;4.90;;;;;;;;;;5117554;27;20047;-70
2022/04/13 07:10:26;;;;;;;11.50;4.47;;;;;;;;;;5130619;27;21024;-69
2022/04/13 07:12:56;;;;;;;16.05;4.28;;;;;;;;;;5127294;27;20535;-70
2022/04/13 07:15:25;;;;;;;9.50;4.63;;;;;;;;;;5125014;27;20479;-70
2022/04/13 07:17:54;;;;;;;12.48;4.38;;;;;;;;;;5124666;27;20047;-70
2022/04/13 07:20:23;;;;;;;11.05;3.83;;;;;;;;;;5117666;27;20046;-70
2022/04/13 07:22:54;;;;;;;10.32;4.30;;;;;;;;;;5115648;27;20054;-71
2022/04/13 07:25:24;;;;;;;9.18;3.90;;;;;;;;;;5111288;27;20050;-71
2022/04/13 07:27:52;;;;;;;16.13;4.30;;;;;;;;;;5116907;27;20491;-71
2022/04/13 07:30:21;;;;;;;14.48;4.38;;;;;;;;;;5116660;27;20059;-71
2022/04/13 07:32:53;;;;;;;12.77;4.53;;;;;;;;;;5108960;27;20047;-70
2022/04/13 07:35:21;;;;;;;11.18;5.05;;;;;;;;;;5112208;27;20097;-71
2022/04/13 07:37:50;;;;;;;9.77;4.57;;;;;;;;;;5125349;27;20084;-70
2022/04/13 07:40:20;;;;;;;10.18;3.88;;;;;;;;;;5123349;27;20050;-70
2022/04/13 07:42:48;;;;;;;9.88;4.30;;;;;;;;;;5132759;27;20126;-70
2022/04/13 07:45:17;;;;;;;11.00;4.53;;;;;;;;;;5116392;27;20044;-71
2022/04/13 07:47:46;;;;;;;8.95;3.85;;;;;;;;;;5115458;27;20216;-70
2022/04/13 07:50:14;;;;;;;11.93;4.70;;;;;;;;;;5121276;27;20043;-71
2022/04/13 07:52:43;;;;;;;8.45;4.25;;;;;;;;;;5110467;27;20395;-71
2022/04/13 07:55:12;;;;;;;8.77;3.75;;;;;;;;;;5108644;28;20087;-71
2022/04/13 07:57:42;;;;;;;10.10;4.05;;;;;;;;;;5133580;27;20043;-71
2022/04/13 08:00:11;;;;;;;11.38;3.85;;;;;;;;;;5116440;28;20058;-71
2022/04/13 08:02:41;;;;;;;12.95;4.10;;;;;;;;;;5128707;28;20478;-70
2022/04/13 08:05:12;;;;;;;8.35;3.75;;;;;;;;;;5120881;28;20134;-71
2022/04/13 08:07:41;;;;;;;7.53;3.33;;;;;;;;;;5113139;28;20486;-71
2022/04/13 08:10:10;;;;;;;10.50;3.60;;;;;;;;;;5113308;28;20072;-71
2022/04/13 08:12:40;;;;;;;5.03;2.53;;;;;;;;;;5107173;28;20146;-71
2022/04/13 08:15:12;;;;;;;6.55;3.10;;;;;;;;;;5126094;28;20479;-71
2022/04/13 08:17:41;;;;;;;7.65;3.47;;;;;;;;;;5126965;28;20039;-71
2022/04/13 08:20:13;;;;;;;9.10;3.67;;;;;;;;;;5113542;28;20043;-69
2022/04/13 08:22:43;;;;;;;7.82;3.25;;;;;;;;;;5118827;28;20059;-72
2022/04/13 08:25:13;;;;;;;6.65;3.47;;;;;;;;;;5121733;28;20058;-70
2022/04/13 08:27:44;;;;;;;4.88;3.22;;;;;;;;;;5115339;28;20139;-70
2022/04/13 08:30:15;;;;;;;6.35;3.40;;;;;;;;;;5124507;28;20043;-71
2022/04/13 08:32:44;;;;;;;4.20;2.35;;;;;;;;;;5122084;28;20047;-70
2022/04/13 08:35:12;;;;;;;13.10;2.83;;;;;;;;;;5116961;28;20055;-70
2022/04/13 08:37:41;;;;;;;11.30;2.53;;;;;;;;;;5123124;28;20055;-71
2022/04/13 08:40:11;;;;;;;6.32;2.88;;;;;;;;;;5117589;28;20063;-70
2022/04/13 08:42:42;;;;;;;7.78;2.88;;;;;;;;;;5120156;28;20070;-70
2022/04/13 08:45:17;;;;;;;5.47;3.08;;;;;;;;;;5116782;28;20043;-72
2022/04/13 08:47:48;;;;;;;7.22;2.60;;;;;;;;;;5119519;28;20134;-71
2022/04/13 08:50:18;;;;;;;6.32;2.60;;;;;;;;;;5127396;28;20061;-71
2022/04/13 08:52:52;;;;;;;11.45;2.83;;;;;;;;;;5126019;28;20047;-71
2022/04/13 08:55:21;;;;;;;10.10;3.40;;;;;;;;;;5115060;28;20040;-71
2022/04/13 08:57:51;;;;;;;6.32;2.88;;;;;;;;;;5113139;27;20040;-71
2022/04/13 09:00:20;;;;;;;5.47;2.75;;;;;;;;;;5114957;27;20740;-71
2022/04/13 09:03:06;;;;;;;8.07;2.72;;;;;;;;;;5121571;27;20093;-71
2022/04/13 09:05:42;;;;;;;10.05;2.95;;;;;;;;;;5124875;27;20483;-71
2022/04/13 09:08:13;;;;;;;6.15;2.80;;;;;;;;;;5124984;27;20114;-71
2022/04/13 09:10:43;;;;;;;8.50;2.83;;;;;;;;;;5131757;27;20134;-71
2022/04/13 09:13:11;;;;;;;9.55;3.03;;;;;;;;;;5122035;27;20046;-71
2022/04/13 09:15:41;;;;;;;4.32;2.80;;;;;;;;;;5130895;27;20047;-69
2022/04/13 09:18:16;;;;;;;6.25;2.65;;;;;;;;;;5119615;27;20047;-70
2022/04/13 09:20:45;;;;;;;7.53;2.60;;;;;;;;;;5123402;27;20044;-71
2022/04/13 09:23:15;;;;;;;5.10;3.05;;;;;;;;;;5119626;27;20047;-70
2022/04/13 09:25:44;;;;;;;4.90;2.33;;;;;;;;;;5117729;27;20078;-71
2022/04/13 09:28:13;;;;;;;4.40;2.92;;;;;;;;;;5109745;27;20051;-71
2022/04/13 09:30:41;;;;;;;4.97;3.10;;;;;;;;;;5122155;27;20629;-71
2022/04/13 09:33:10;;;;;;;3.75;2.55;;;;;;;;;;5124351;27;20096;-70
2022/04/13 09:35:40;;;;;;;8.32;2.70;;;;;;;;;;5119046;27;20063;-71
2022/04/13 09:38:09;;;;;;;6.78;3.17;;;;;;;;;;5118445;27;20043;-71
2022/04/13 09:40:39;;;;;;;6.28;2.78;;;;;;;;;;5116916;27;20051;-71
2022/04/13 09:43:13;;;;;;;5.97;3.60;;;;;;;;;;5127222;27;20046;-71
2022/04/13 09:45:43;;;;;;;5.47;3.00;;;;;;;;;;5130957;27;20043;-71
2022/04/13 09:48:13;;;;;;;3.90;2.42;;;;;;;;;;5135445;27;20054;-72
2022/04/13 09:50:44;;;;;;;4.40;2.50;;;;;;;;;;5131406;27;20456;-71
2022/04/13 09:53:14;;;;;;;5.50;3.45;;;;;;;;;;5131159;27;20136;-71
2022/04/13 09:55:43;;;;;;;5.25;2.90;;;;;;;;;;5132311;27;20490;-71
2022/04/13 09:58:12;;;;;;;5.60;3.20;;;;;;;;;;5130585;27;20062;-71
2022/04/13 10:00:42;;;;;;;5.53;3.05;;;;;;;;;;5125485;27;20126;-71
2022/04/13 10:03:12;;;;;;;5.95;2.75;;;;;;;;;;5123923;27;20043;-72
2022/04/13 10:05:45;;;;;;;6.40;2.60;;;;;;;;;;5114084;27;20065;-71
2022/04/13 10:08:14;;;;;;;4.97;3.17;;;;;;;;;;5127194;27;20147;-71
2022/04/13 10:10:44;;;;;;;4.13;2.85;;;;;;;;;;5131797;27;20042;-71
2022/04/13 10:13:12;;;;;;;10.77;2.80;;;;;;;;;;5131542;27;20130;-71
2022/04/13 10:15:41;;;;;;;7.18;3.72;;;;;;;;;;5125940;27;20146;-72
2022/04/13 10:18:10;;;;;;;6.20;3.33;;;;;;;;;;5130804;27;20066;-72
2022/04/13 10:20:43;;;;;;;4.90;3.03;;;;;;;;;;5129139;27;20588;-71
2022/04/13 10:23:12;;;;;;;6.00;3.63;;;;;;;;;;5122241;27;20051;-72
2022/04/13 10:25:41;;;;;;;6.75;3.40;;;;;;;;;;5127203;27;20082;-72
2022/04/13 10:28:12;;;;;;;5.72;2.83;;;;;;;;;;5121143;27;20051;-71
2022/04/13 10:30:42;;;;;;;4.25;3.35;;;;;;;;;;5122143;27;20127;-71
2022/04/13 10:33:11;;;;;;;6.93;2.85;;;;;;;;;;5113073;27;20420;-71
2022/04/13 10:35:40;;;;;;;8.25;3.90;;;;;;;;;;5118900;27;20133;-70
2022/04/13 10:38:12;;;;;;;7.97;3.50;;;;;;;;;;5121535;27;20074;-70
2022/04/13 10:40:41;;;;;;;5.70;4.25;;;;;;;;;;5129255;27;20462;-71
2022/04/13 10:43:11;;;;;;;6.90;3.63;;;;;;;;;;5111219;27;20142;-70
2022/04/13 10:45:41;;;;;;;8.52;4.68;;;;;;;;;;5115942;27;20085;-71
2022/04/13 10:48:11;;;;;;;9.10;4.57;;;;;;;;;;5118383;27;20478;-70
2022/04/13 10:50:45;;;;;;;6.85;4.90;;;;;;;;;;5130665;27;20069;-71
2022/04/13 10:53:20;;;;;;;5.78;3.90;;;;;;;;;;5128841;27;20039;-71
2022/04/13 10:55:54;;;;;;;5.63;3.97;;;;;;;;;;5130299;27;20047;-72
2022/04/13 10:58:25;;;;;;;5.60;4.13;;;;;;;;;;5127859;27;20572;-69
2022/04/13 11:00:58;;;;;;;5.47;3.80;;;;;;;;;;5129859;27;20057;-69
2022/04/13 11:03:30;;;;;;;7.22;4.05;;;;;;;;;;5130565;27;20104;-69
2022/04/13 11:06:00;;;;;;;6.05;4.43;;;;;;;;;;5111559;27;20097;-71
2022/04/13 11:08:34;;;;;;;5.28;3.70;;;;;;;;;;5124317;27;20107;-71
2022/04/13 11:11:05;;;;;;;7.13;3.55;;;;;;;;;;5130100;27;20039;-69
2022/04/13 11:13:35;;;;;;;7.32;3.88;;;;;;;;;;5128522;27;20486;-71
2022/04/13 11:16:17;;;;;;;6.35;3.63;;;;;;;;;;5117324;27;20406;-71
2022/04/13 11:19:00;;;;;;;6.30;3.90;;;;;;;;;;5122751;27;20046;-69
2022/04/13 11:21:29;;;;;;;7.53;4.53;;;;;;;;;;5128955;27;20486;-70
2022/04/13 11:23:59;;;;;;;10.95;5.07;;;;;;;;;;5124905;27;20459;-70
2022/04/13 11:26:28;;;;;;;7.93;3.80;;;;;;;;;;5129950;27;20050;-70
2022/04/13 11:29:14;;;;;;;8.02;4.90;;;;;;;;;;5122314;27;20047;-70
2022/04/13 11:31:57;;;;;;;6.45;4.28;;;;;;;;;;5109804;28;20113;-70
2022/04/13 11:34:29;;;;;;;11.85;4.75;;;;;;;;;;5123931;27;20043;-71
2022/04/13 11:36:59;;;;;;;8.55;6.07;;;;;;;;;;5110926;27;20052;-71
2022/04/13 11:39:42;;;;;;;11.65;6.35;;;;;;;;;;5115875;27;20051;-71
2022/04/13 11:42:16;;;;;;;6.93;5.10;;;;;;;;;;5115813;27;20051;-70
2022/04/13 11:44:48;;;;;;;9.88;6.25;;;;;;;;;;5112364;27;20047;-70
2022/04/13 11:47:18;;;;;;;8.45;5.65;;;;;;;;;;5112013;27;20103;-71
2022/04/13 11:49:56;;;;;;;9.50;5.53;;;;;;;;;;5128753;27;20051;-70
2022/04/13 11:52:41;;;;;;;7.35;4.13;;;;;;;;;;5126067;27;20051;-71
2022/04/13 11:55:17;;;;;;;8.43;4.80;;;;;;;;;;5126156;27;20069;-71
2022/04/13 11:58:19;;;;;;;6.70;4.75;;;;;;;;;;5123899;27;20043;-70
2022/04/13 12:00:52;;;;;;;7.38;4.80;;;;;;;;;;5099980;28;20119;-71
2022/04/13 12:03:21;;;;;;;6.80;4.75;;;;;;;;;;5108127;28;20055;-70
2022/04/13 12:05:56;;;;;;;8.25;5.05;;;;;;;;;;5119705;28;20135;-70
2022/04/13 12:08:25;;;;;;;6.30;4.95;;;;;;;;;;5126530;28;20070;-70
2022/04/13 12:10:56;;;;;;;7.47;4.93;;;;;;;;;;5109879;28;20047;-70
2022/04/13 12:13:26;;;;;;;7.07;5.75;;;;;;;;;;5115117;28;20881;-70
2022/04/13 12:15:56;;;;;;;7.63;5.88;;;;;;;;;;5119644;28;20555;-71
2022/04/13 12:18:26;;;;;;;7.25;5.10;;;;;;;;;;5120661;28;20085;-71
2022/04/13 12:20:55;;;;;;;8.93;4.75;;;;;;;;;;5127948;28;20047;-70
2022/04/13 12:23:26;;;;;;;8.23;5.05;;;;;;;;;;5114175;28;20051;-71
2022/04/13 12:25:55;;;;;;;8.65;4.68;;;;;;;;;;5119933;28;20073;-70
2022/04/13 12:28:25;;;;;;;7.55;5.00;;;;;;;;;;5113618;27;20052;-71
2022/04/13 12:30:58;;;;;;;8.02;5.80;;;;;;;;;;5117195;28;20066;-70
2022/04/13 12:33:27;;;;;;;8.40;4.82;;;;;;;;;;5128527;27;20109;-71
2022/04/13 12:35:56;;;;;;;6.38;4.43;;;;;;;;;;5122148;27;20108;-70
2022/04/13 12:38:26;;;;;;;7.32;4.38;;;;;;;;;;5123779;27;20036;-71
2022/04/13 12:41:08;;;;;;;9.30;5.82;;;;;;;;;;5121441;27;20044;-70
2022/04/13 12:43:39;;;;;;;9.98;5.50;;;;;;;;;;5122649;27;20130;-71
2022/04/13 12:46:11;;;;;;;9.73;5.47;;;;;;;;;;5126261;27;20047;-70
2022/04/13 12:48:40;;;;;;;7.97;5.22;;;;;;;;;;5128268;27;20111;-70
2022/04/13 12:51:09;;;;;;;7.47;5.10;;;;;;;;;;5132128;27;20039;-70
2022/04/13 12:53:48;;;;;;;8.27;5.85;;;;;;;;;;5133663;27;20509;-70
2022/04/13 12:56:17;;;;;;;9.00;5.32;;;;;;;;;;5124904;27;20653;-70
2022/04/13 12:58:47;;;;;;;10.18;5.55;;;;;;;;;;5125326;27;20077;-70
2022/04/13 13:01:26;;;;;;;7.30;4.90;;;;;;;;;;5123342;27;20051;-71
2022/04/13 13:03:55;;;;;;;6.30;4.60;;;;;;;;;;5126350;27;20118;-71
2022/04/13 13:06:29;;;;;;;7.47;5.50;;;;;;;;;;5132743;27;20103;-70
2022/04/13 13:08:59;;;;;;;8.38;4.47;;;;;;;;;;5117412;27;20139;-71
2022/04/13 13:11:29;;;;;;;6.82;4.45;;;;;;;;;;5129139;27;21466;-71
2022/04/13 13:14:15;;;;;;;6.90;4.60;;;;;;;;;;5124610;27;20078;-72
2022/04/13 13:16:47;;;;;;;7.05;4.65;;;;;;;;;;5117216;27;20044;-71
2022/04/13 13:19:17;;;;;;;6.80;4.50;;;;;;;;;;5124780;27;20040;-71
2022/04/13 13:22:05;;;;;;;7.35;4.28;;;;;;;;;;5126371;27;20074;-71
2022/04/13 13:24:34;;;;;;;7.15;5.22;;;;;;;;;;5131932;27;20043;-71
2022/04/13 13:27:03;;;;;;;8.55;4.85;;;;;;;;;;5107082;27;20059;-71
2022/04/13 13:29:32;;;;;;;9.98;5.80;;;;;;;;;;5122638;27;20055;-72
2022/04/13 13:32:12;;;;;;;9.18;4.32;;;;;;;;;;5132078;27;20042;-71
2022/04/13 13:34:49;;;;;;;6.93;4.45;;;;;;;;;;5129062;27;20047;-71
2022/04/13 13:37:34;;;;;;;9.85;5.10;;;;;;;;;;5112137;27;20052;-71
2022/04/13 13:40:03;;;;;;;8.25;3.80;;;;;;;;;;5127690;27;20120;-71
2022/04/13 13:42:42;;;;;;;6.65;4.28;;;;;;;;;;5112391;28;20051;-70
2022/04/13 13:45:17;;;;;;;12.85;5.70;;;;;;;;;;5111399;28;20046;-69
2022/04/13 13:47:48;;;;;;;6.90;4.22;;;;;;;;;;5118972;27;20048;-69
2022/04/13 13:50:17;;;;;;;7.88;5.07;;;;;;;;;;5112403;27;20055;-71
2022/04/13 13:52:46;;;;;;;7.05;4.95;;;;;;;;;;5111915;28;20047;-70
2022/04/13 13:55:23;;;;;;;8.23;4.95;;;;;;;;;;5112127;28;20079;-70
2022/04/13 13:57:52;;;;;;;6.82;4.05;;;;;;;;;;5127229;27;20051;-71
2022/04/13 14:00:21;;;;;;;6.20;4.38;;;;;;;;;;5110969;27;20035;-71
2022/04/13 14:02:53;;;;;;;8.73;5.03;;;;;;;;;;5111348;27;20657;-70
2022/04/13 14:05:22;;;;;;;9.00;5.32;;;;;;;;;;5125110;27;20076;-71
2022/04/13 14:07:51;;;;;;;6.85;4.82;;;;;;;;;;5118453;27;20043;-70
2022/04/13 14:10:21;;;;;;;8.05;4.63;;;;;;;;;;5115088;27;20130;-70
2022/04/13 14:12:50;;;;;;;6.93;4.40;;;;;;;;;;5120576;27;20047;-72
2022/04/13 14:15:20;;;;;;;8.13;4.82;;;;;;;;;;5111413;28;20147;-70
2022/04/13 14:17:49;;;;;;;8.07;4.30;;;;;;;;;;5109949;27;20104;-70
2022/04/13 14:20:19;;;;;;;7.00;4.75;;;;;;;;;;5120453;27;20054;-70
2022/04/13 14:22:51;;;;;;;6.22;4.03;;;;;;;;;;5113884;27;20062;-70
2022/04/13 14:25:20;;;;;;;6.90;3.90;;;;;;;;;;5110062;27;20495;-70
2022/04/13 14:27:52;;;;;;;9.77;5.03;;;;;;;;;;5118336;27;20046;-70
2022/04/13 14:30:21;;;;;;;7.75;4.38;;;;;;;;;;5123124;27;20043;-71
2022/04/13 14:32:51;;;;;;;5.50;3.42;;;;;;;;;;5129876;27;20135;-69
2022/04/13 14:35:21;;;;;;;7.78;4.68;;;;;;;;;;5114215;27;20514;-70
2022/04/13 14:37:54;;;;;;;7.82;4.07;;;;;;;;;;5112455;27;20109;-69
2022/04/13 14:40:24;;;;;;;8.25;4.60;;;;;;;;;;5120110;27;20074;-69
2022/04/13 14:42:53;;;;;;;47.85;6.75;;;;;;;;;;5127675;27;20375;-70
2022/04/13 14:45:22;;;;;;;9.52;4.43;;;;;;;;;;5115026;27;20655;-70
2022/04/13 14:47:51;;;;;;;9.30;4.43;;;;;;;;;;5112353;27;20078;-71
2022/04/13 14:50:21;;;;;;;7.22;4.15;;;;;;;;;;5113395;27;20126;-70
2022/04/13 14:52:51;;;;;;;8.35;3.70;;;;;;;;;;5113822;27;20108;-71
2022/04/13 14:55:20;;;;;;;8.35;4.57;;;;;;;;;;5112871;27;20046;-70
2022/04/13 14:57:49;;;;;;;7.93;5.15;;;;;;;;;;5127484;27;20432;-72
2022/04/13 15:00:20;;;;;;;9.52;4.93;;;;;;;;;;5109124;28;20057;-71